createdAt,value
2023-05-10T00:00:21.460Z,19.58
2023-05-10T00:02:48.268Z,14.70
2023-05-10T00:05:15.248Z,16.92
2023-05-10T00:07:42.002Z,14.45
2023-05-10T00:10:08.848Z,14.88
2023-05-10T00:12:35.448Z,15.25
2023-05-10T00:15:02.270Z,15.05
2023-05-10T00:17:28.754Z,15.85
2023-05-10T00:19:55.586Z,14.35
2023-05-10T00:22:22.274Z,18.25
2023-05-10T00:24:48.739Z,17.77
2023-05-10T00:27:15.453Z,21.38
2023-05-10T00:29:41.918Z,17.50
2023-05-10T00:32:08.827Z,18.05
2023-05-10T00:34:35.460Z,20.95
2023-05-10T00:37:02.484Z,23.70
2023-05-10T00:39:29.606Z,26.77
2023-05-10T00:41:56.061Z,24.10
2023-05-10T00:44:22.491Z,24.27
2023-05-10T00:46:50.155Z,27.05
2023-05-10T00:49:17.442Z,30.90
2023-05-10T00:51:45.643Z,26.77
2023-05-10T00:54:13.325Z,27.45
2023-05-10T00:56:40.559Z,29.10
2023-05-10T00:59:07.652Z,31.42
2023-05-10T01:01:34.600Z,34.03
2023-05-10T01:04:01.656Z,38.05
2023-05-10T01:06:28.691Z,34.92
2023-05-10T01:08:55.337Z,37.00
2023-05-10T01:11:22.257Z,37.22
2023-05-10T01:13:55.654Z,34.00
2023-05-10T01:16:22.191Z,39.53
2023-05-10T01:18:50.491Z,38.63
2023-05-10T01:21:47.705Z,35.60
2023-05-10T01:24:26.589Z,33.75
2023-05-10T01:27:20.860Z,35.58
2023-05-10T01:30:13.998Z,31.17
2023-05-10T01:32:51.533Z,34.97
2023-05-10T01:35:33.613Z,31.27
2023-05-10T01:38:09.734Z,31.23
2023-05-10T01:41:02.556Z,33.50
2023-05-10T01:43:36.515Z,36.55
2023-05-10T01:46:15.600Z,39.28
2023-05-10T01:48:53.030Z,37.25
2023-05-10T01:51:26.121Z,36.85
2023-05-10T01:54:01.483Z,37.17
2023-05-10T01:56:30.606Z,37.35
2023-05-10T01:58:59.681Z,36.63
2023-05-10T02:01:27.659Z,35.25
2023-05-10T02:03:56.590Z,39.95
2023-05-10T02:06:24.715Z,35.92
2023-05-10T02:08:53.179Z,36.67
2023-05-10T02:11:21.965Z,36.60
2023-05-10T02:13:51.429Z,38.42
2023-05-10T02:16:19.217Z,40.53
2023-05-10T02:18:46.812Z,36.28
2023-05-10T02:21:16.345Z,37.67
2023-05-10T02:23:44.213Z,42.35
2023-05-10T02:26:12.972Z,39.22
2023-05-10T02:28:41.333Z,38.38
2023-05-10T02:31:10.702Z,33.92
2023-05-10T02:33:40.845Z,36.58
2023-05-10T02:36:09.662Z,35.30
2023-05-10T02:38:37.673Z,39.90
2023-05-10T02:41:06.601Z,43.05
2023-05-10T02:43:34.781Z,40.65
2023-05-10T02:46:01.777Z,42.08
2023-05-10T02:48:28.895Z,38.35
2023-05-10T02:51:01.542Z,39.90
2023-05-10T02:53:39.321Z,37.15
2023-05-10T02:56:14.358Z,43.00
2023-05-10T02:58:41.070Z,37.05
2023-05-10T03:01:08.738Z,40.47
2023-05-10T03:03:35.395Z,42.58
2023-05-10T03:06:01.903Z,38.63
2023-05-10T03:08:30.423Z,44.08
2023-05-10T03:11:15.245Z,48.47
2023-05-10T03:14:12.842Z,49.70
2023-05-10T03:16:48.084Z,47.47
2023-05-10T03:19:27.186Z,53.30
2023-05-10T03:21:56.873Z,51.17
2023-05-10T03:24:28.354Z,52.42
2023-05-10T03:27:00.058Z,48.08
2023-05-10T03:29:27.356Z,50.80
2023-05-10T03:31:53.936Z,50.90
2023-05-10T03:34:26.855Z,50.80
2023-05-10T03:36:53.418Z,56.30
2023-05-10T03:39:20.277Z,53.97
2023-05-10T03:41:46.716Z,54.97
2023-05-10T03:44:13.232Z,50.83
2023-05-10T03:46:39.681Z,55.08
2023-05-10T03:49:06.452Z,52.00
2023-05-10T03:51:33.248Z,51.38
2023-05-10T03:53:59.743Z,50.05
2023-05-10T03:56:26.573Z,50.30
2023-05-10T03:58:53.085Z,53.35
2023-05-10T04:01:19.519Z,52.85
2023-05-10T04:03:46.408Z,57.35
2023-05-10T04:06:13.109Z,59.63
2023-05-10T04:08:39.811Z,52.67
2023-05-10T04:11:10.652Z,60.58
2023-05-10T04:13:37.907Z,55.63
2023-05-10T04:16:05.088Z,50.35
2023-05-10T04:18:32.414Z,49.63
2023-05-10T04:20:58.926Z,49.42
2023-05-10T04:23:25.505Z,50.05
2023-05-10T04:25:51.998Z,53.55
2023-05-10T04:28:18.471Z,47.38
2023-05-10T04:30:45.077Z,49.78
2023-05-10T04:33:11.527Z,45.38
2023-05-10T04:35:38.036Z,47.85
2023-05-10T04:38:04.492Z,54.63
2023-05-10T04:40:30.960Z,47.95
2023-05-10T04:42:57.462Z,47.80
2023-05-10T04:45:23.905Z,53.25
2023-05-10T04:47:50.448Z,49.83
2023-05-10T04:50:17.313Z,46.33
2023-05-10T04:52:43.946Z,48.47
2023-05-10T04:55:10.982Z,43.95
2023-05-10T04:57:37.535Z,49.35
2023-05-10T05:00:04.863Z,48.60
2023-05-10T05:02:31.756Z,46.97
2023-05-10T05:04:58.871Z,53.30
2023-05-10T05:07:25.318Z,44.28
2023-05-10T05:09:51.752Z,54.58
2023-05-10T05:12:18.179Z,50.63
2023-05-10T05:14:44.661Z,50.83
2023-05-10T05:17:11.115Z,46.53
2023-05-10T05:19:37.956Z,53.22
2023-05-10T05:22:04.675Z,48.95
2023-05-10T05:24:36.724Z,48.90
2023-05-10T05:27:03.409Z,57.25
2023-05-10T05:29:30.043Z,52.60
2023-05-10T05:31:56.684Z,50.08
2023-05-10T05:34:23.407Z,55.88
2023-05-10T05:36:49.900Z,50.63
2023-05-10T05:39:16.668Z,50.35
2023-05-10T05:41:43.553Z,50.25
2023-05-10T05:44:10.021Z,51.97
2023-05-10T05:46:36.493Z,44.50
2023-05-10T05:49:02.928Z,45.40
2023-05-10T05:51:29.520Z,48.42
2023-05-10T05:53:56.295Z,48.97
2023-05-10T05:56:25.590Z,45.75
2023-05-10T05:58:52.319Z,48.75
2023-05-10T06:01:18.837Z,48.47
2023-05-10T06:03:45.471Z,40.10
2023-05-10T06:06:12.082Z,43.55
2023-05-10T06:08:38.565Z,44.13
2023-05-10T06:11:05.295Z,42.90
2023-05-10T06:13:33.726Z,43.60
2023-05-10T06:16:00.471Z,37.17
2023-05-10T06:18:27.314Z,39.20
2023-05-10T06:20:53.779Z,40.78
2023-05-10T06:23:20.257Z,39.08
2023-05-10T06:25:46.928Z,41.30
2023-05-10T06:28:13.477Z,37.65
2023-05-10T06:30:39.935Z,38.40
2023-05-10T06:33:06.654Z,39.03
2023-05-10T06:35:34.524Z,35.85
2023-05-10T06:38:01.021Z,35.50
2023-05-10T06:40:27.660Z,33.85
2023-05-10T06:42:54.261Z,28.95
2023-05-10T06:45:21.017Z,32.45
2023-05-10T06:47:47.652Z,27.80
2023-05-10T06:50:14.346Z,32.78
2023-05-10T06:52:40.842Z,30.77
2023-05-10T06:55:08.026Z,26.42
2023-05-10T06:57:34.726Z,25.13
2023-05-10T07:00:01.292Z,23.30
2023-05-10T07:02:28.077Z,20.33
2023-05-10T07:04:55.108Z,24.67
2023-05-10T07:07:21.740Z,22.55
2023-05-10T07:09:48.433Z,17.85
2023-05-10T07:12:15.849Z,16.45
2023-05-10T07:14:43.090Z,15.95
2023-05-10T07:17:09.822Z,19.10
2023-05-10T07:19:36.905Z,14.43
2023-05-10T07:22:03.840Z,13.60
2023-05-10T07:24:30.847Z,17.25
2023-05-10T07:26:57.331Z,15.10
2023-05-10T07:29:23.806Z,15.15
2023-05-10T07:31:50.294Z,13.75
2023-05-10T07:34:16.829Z,15.35
2023-05-10T07:36:43.495Z,13.35
2023-05-10T07:39:11.423Z,12.32
2023-05-10T07:41:38.620Z,16.20
2023-05-10T07:44:05.898Z,12.50
2023-05-10T07:46:32.753Z,12.93
2023-05-10T07:48:59.628Z,17.80
2023-05-10T07:51:26.256Z,15.93
2023-05-10T07:53:52.943Z,17.45
2023-05-10T07:56:33.248Z,14.25
2023-05-10T07:59:00.406Z,16.08
2023-05-10T08:01:30.788Z,14.05
2023-05-10T08:03:57.317Z,16.85
2023-05-10T08:06:23.959Z,17.95
2023-05-10T08:08:51.509Z,12.32
2023-05-10T08:11:18.557Z,14.52
2023-05-10T08:13:49.777Z,11.68
2023-05-10T08:16:16.888Z,13.25
2023-05-10T08:18:50.045Z,11.98
2023-05-10T08:21:16.827Z,13.65
2023-05-10T08:23:44.765Z,15.13
2023-05-10T08:26:11.932Z,11.68
2023-05-10T08:28:38.545Z,13.88
2023-05-10T08:31:05.986Z,12.60
2023-05-10T08:33:32.589Z,12.23
2023-05-10T08:35:59.063Z,12.25
2023-05-10T08:38:25.868Z,12.45
2023-05-10T08:40:58.015Z,16.27
2023-05-10T08:43:32.502Z,14.73
2023-05-10T08:46:03.967Z,15.85
2023-05-10T08:48:32.008Z,10.02
2023-05-10T08:51:01.632Z,13.85
2023-05-10T08:53:30.046Z,14.10
2023-05-10T08:55:56.658Z,15.68
2023-05-10T08:58:23.381Z,15.07
2023-05-10T09:00:51.923Z,14.68
2023-05-10T09:03:18.875Z,13.70
2023-05-10T09:05:46.121Z,13.93
2023-05-10T09:08:14.279Z,10.05
2023-05-10T09:10:43.257Z,11.23
2023-05-10T09:13:11.957Z,8.50
2023-05-10T09:15:39.443Z,9.68
2023-05-10T09:18:05.968Z,11.18
2023-05-10T09:20:32.573Z,10.98
2023-05-10T09:22:59.273Z,11.82
2023-05-10T09:25:25.746Z,9.77
2023-05-10T09:27:53.619Z,9.63
2023-05-10T09:30:28.702Z,8.98
2023-05-10T09:35:28.022Z,8.15
2023-05-10T09:37:58.220Z,7.05
2023-05-10T09:40:26.342Z,5.50
2023-05-10T09:43:03.402Z,6.80
2023-05-10T09:45:31.906Z,3.97
2023-05-10T09:48:00.268Z,5.30
2023-05-10T09:50:27.707Z,4.25
2023-05-10T09:53:00.975Z,4.03
2023-05-10T09:55:42.526Z,3.40
2023-05-10T09:58:11.840Z,4.70
2023-05-10T10:00:43.167Z,5.18
2023-05-10T10:03:18.383Z,4.85
2023-05-10T10:05:45.673Z,6.65
2023-05-10T10:08:13.772Z,5.05
2023-05-10T10:10:46.294Z,6.03
2023-05-10T10:13:13.551Z,7.15
2023-05-10T10:15:40.391Z,6.50
2023-05-10T10:18:09.059Z,5.63
2023-05-10T10:20:38.522Z,5.45
2023-05-10T10:23:04.984Z,6.05
2023-05-10T10:25:32.779Z,8.20
2023-05-10T10:28:22.981Z,6.30
2023-05-10T10:30:52.340Z,6.88
2023-05-10T10:33:37.161Z,6.55
2023-05-10T10:36:05.088Z,5.47
2023-05-10T10:38:47.875Z,7.68
2023-05-10T10:41:33.063Z,6.07
2023-05-10T10:44:47.856Z,8.43
2023-05-10T10:47:19.795Z,7.18
2023-05-10T10:50:02.892Z,9.20
2023-05-10T10:52:34.510Z,7.22
2023-05-10T10:55:08.242Z,6.10
2023-05-10T10:58:03.787Z,6.40
2023-05-10T11:00:36.510Z,8.38
2023-05-10T11:03:15.548Z,5.60
2023-05-10T11:05:43.938Z,9.85
2023-05-10T11:08:12.998Z,6.32
2023-05-10T11:10:40.659Z,5.82
2023-05-10T11:13:09.074Z,5.78
2023-05-10T11:15:35.612Z,5.47
2023-05-10T11:18:18.048Z,5.63
2023-05-10T11:20:44.606Z,6.47
2023-05-10T11:23:16.854Z,5.55
2023-05-10T11:25:45.222Z,7.05
2023-05-10T11:28:15.226Z,6.55
2023-05-10T11:30:44.498Z,7.30
2023-05-10T11:33:17.062Z,5.95
2023-05-10T11:35:44.085Z,6.75
2023-05-10T11:38:12.433Z,6.75
2023-05-10T11:40:40.064Z,6.53
2023-05-10T11:43:06.867Z,7.70
2023-05-10T11:45:34.431Z,8.82
2023-05-10T11:48:01.848Z,4.90
2023-05-10T11:50:28.877Z,9.02
2023-05-10T11:52:59.793Z,7.80
2023-05-10T11:55:26.661Z,5.75
2023-05-10T11:57:54.521Z,5.97
2023-05-10T12:00:21.318Z,5.85
2023-05-10T12:02:48.581Z,6.72
2023-05-10T12:05:15.629Z,5.32
2023-05-10T12:07:42.162Z,5.20
2023-05-10T12:10:11.051Z,5.78
2023-05-10T12:12:45.116Z,5.88
2023-05-10T12:15:17.749Z,4.43
2023-05-10T12:17:45.639Z,5.25
2023-05-10T12:20:16.263Z,3.05
2023-05-10T12:22:51.082Z,6.80
2023-05-10T12:25:19.059Z,5.10
2023-05-10T12:30:38.742Z,6.18
2023-05-10T12:33:14.145Z,4.55
2023-05-10T12:35:54.866Z,4.90
2023-05-10T12:38:40.059Z,3.55
2023-05-10T12:41:14.693Z,4.35
2023-05-10T12:43:41.506Z,2.63
2023-05-10T12:46:09.843Z,3.35
2023-05-10T12:48:37.675Z,2.80
2023-05-10T12:51:05.021Z,3.63
2023-05-10T12:53:32.149Z,4.20
2023-05-10T12:55:58.653Z,4.20
2023-05-10T12:58:34.881Z,5.63
2023-05-10T13:01:02.611Z,3.08
2023-05-10T13:03:29.117Z,4.07
2023-05-10T13:05:55.593Z,7.28
2023-05-10T13:08:22.119Z,4.32
2023-05-10T13:10:48.758Z,4.25
2023-05-10T13:13:16.111Z,4.63
2023-05-10T13:15:42.617Z,3.95
2023-05-10T13:18:09.288Z,3.00
2023-05-10T13:20:36.038Z,4.03
2023-05-10T13:23:03.676Z,4.43
2023-05-10T13:25:30.956Z,4.30
2023-05-10T13:27:57.484Z,5.60
2023-05-10T13:30:25.013Z,5.70
2023-05-10T13:32:51.768Z,7.72
2023-05-10T13:35:18.494Z,6.68
2023-05-10T13:37:44.988Z,8.57
2023-05-10T13:40:11.753Z,7.60
2023-05-10T13:42:38.492Z,7.38
2023-05-10T13:45:05.527Z,9.02
2023-05-10T13:47:32.022Z,6.53
2023-05-10T13:49:59.320Z,7.63
2023-05-10T13:52:26.173Z,5.53
2023-05-10T13:54:55.776Z,7.35
2023-05-10T13:57:22.915Z,6.68
2023-05-10T13:59:49.512Z,6.38
2023-05-10T14:02:16.100Z,6.78
2023-05-10T14:04:42.550Z,8.07
2023-05-10T14:07:09.208Z,7.07
2023-05-10T14:09:35.667Z,6.90
2023-05-10T14:12:03.159Z,7.38
2023-05-10T14:14:30.398Z,6.90
2023-05-10T14:16:56.946Z,7.30
2023-05-10T14:19:23.493Z,5.65
2023-05-10T14:21:49.988Z,8.68
2023-05-10T14:24:16.437Z,6.15
2023-05-10T14:26:42.902Z,7.25
2023-05-10T14:29:11.497Z,7.68
2023-05-10T14:31:39.031Z,7.15
2023-05-10T14:34:06.734Z,8.18
2023-05-10T14:36:33.354Z,7.93
2023-05-10T14:38:59.899Z,8.02
2023-05-10T14:41:26.371Z,5.95
2023-05-10T14:43:53.663Z,6.00
2023-05-10T14:46:20.881Z,7.80
2023-05-10T14:48:47.576Z,7.13
2023-05-10T14:51:14.252Z,7.47
2023-05-10T14:53:40.729Z,8.88
2023-05-10T14:56:08.068Z,8.80
2023-05-10T14:58:34.619Z,8.05
2023-05-10T15:01:01.233Z,8.45
2023-05-10T15:03:28.457Z,8.15
2023-05-10T15:05:57.014Z,9.07
2023-05-10T15:08:25.473Z,8.45
2023-05-10T15:10:52.505Z,9.25
2023-05-10T15:13:19.016Z,9.25
2023-05-10T15:15:45.539Z,10.63
2023-05-10T15:18:12.335Z,9.73
2023-05-10T15:20:38.965Z,9.98
2023-05-10T15:23:05.493Z,9.90
2023-05-10T15:25:32.189Z,8.68
2023-05-10T15:27:58.759Z,9.38
2023-05-10T15:30:25.326Z,11.15
2023-05-10T15:32:51.971Z,10.70
2023-05-10T15:35:18.986Z,9.75
2023-05-10T15:37:48.446Z,9.07
2023-05-10T15:40:15.017Z,11.48
2023-05-10T15:42:41.600Z,12.00
2023-05-10T15:45:11.769Z,7.07
2023-05-10T15:47:40.639Z,10.00
2023-05-10T15:50:08.060Z,9.27
2023-05-10T15:52:34.788Z,6.95
2023-05-10T15:55:01.227Z,7.70
2023-05-10T15:57:27.896Z,7.18
2023-05-10T15:59:54.531Z,6.35
2023-05-10T16:02:22.505Z,6.47
2023-05-10T16:04:49.268Z,6.95
2023-05-10T16:07:16.009Z,6.75
2023-05-10T16:09:42.637Z,5.68
2023-05-10T16:12:09.324Z,6.63
2023-05-10T16:14:35.834Z,6.85
2023-05-10T16:17:03.183Z,7.40
2023-05-10T16:19:31.936Z,7.72
2023-05-10T16:21:58.531Z,9.15
2023-05-10T16:24:25.984Z,6.82
2023-05-10T16:26:52.807Z,8.52
2023-05-10T16:29:19.514Z,7.57
2023-05-10T16:31:46.350Z,6.03
2023-05-10T16:34:12.837Z,6.47
2023-05-10T16:36:39.365Z,8.35
2023-05-10T16:39:05.865Z,8.80
2023-05-10T16:41:33.982Z,7.10
2023-05-10T16:44:00.676Z,6.75
2023-05-10T16:46:27.301Z,6.97
2023-05-10T16:48:53.922Z,6.97
2023-05-10T16:51:20.489Z,8.75
2023-05-10T16:53:47.114Z,7.20
2023-05-10T16:56:13.562Z,6.28
2023-05-10T16:58:40.040Z,7.97
2023-05-10T17:01:07.193Z,6.30
2023-05-10T17:03:34.189Z,10.13
2023-05-10T17:06:00.786Z,5.65
2023-05-10T17:08:27.274Z,5.50
2023-05-10T17:10:53.852Z,6.07
2023-05-10T17:13:20.284Z,8.50
2023-05-10T17:15:47.469Z,6.57
2023-05-10T17:18:14.026Z,6.00
2023-05-10T17:20:43.170Z,5.85
2023-05-10T17:23:09.790Z,6.32
2023-05-10T17:25:36.813Z,5.88
2023-05-10T17:28:03.924Z,5.05
2023-05-10T17:30:32.623Z,7.35
2023-05-10T17:33:00.151Z,6.43
2023-05-10T17:35:26.884Z,7.30
2023-05-10T17:37:53.787Z,5.22
2023-05-10T17:40:20.346Z,5.32
2023-05-10T17:42:47.024Z,5.43
2023-05-10T17:45:13.498Z,4.03
2023-05-10T17:47:40.049Z,6.50
2023-05-10T17:50:07.038Z,4.88
2023-05-10T17:52:33.755Z,5.85
2023-05-10T17:55:00.289Z,6.20
2023-05-10T17:57:26.855Z,6.72
2023-05-10T17:59:53.467Z,6.80
2023-05-10T18:02:20.125Z,6.68
2023-05-10T18:04:48.612Z,6.97
2023-05-10T18:07:15.589Z,5.47
2023-05-10T18:09:42.137Z,6.38
2023-05-10T18:12:08.680Z,6.07
2023-05-10T18:14:41.218Z,5.28
2023-05-10T18:17:09.689Z,6.38
2023-05-10T18:19:36.505Z,6.80
2023-05-10T18:22:03.235Z,9.50
2023-05-10T18:24:38.930Z,5.97
2023-05-10T18:27:08.666Z,6.60
2023-05-10T18:29:36.222Z,7.90
2023-05-10T18:32:02.988Z,8.02
2023-05-10T18:34:29.558Z,7.25
2023-05-10T18:36:56.414Z,8.50
2023-05-10T18:39:23.593Z,8.98
2023-05-10T18:41:50.260Z,7.65
2023-05-10T18:44:16.901Z,7.40
2023-05-10T18:46:43.587Z,8.70
2023-05-10T18:49:10.135Z,8.65
2023-05-10T18:51:36.941Z,9.63
2023-05-10T18:54:03.577Z,7.18
2023-05-10T18:56:30.076Z,7.60
2023-05-10T18:58:56.626Z,8.90
2023-05-10T19:01:23.238Z,7.53
2023-05-10T19:03:49.784Z,9.70
2023-05-10T19:06:16.456Z,9.25
2023-05-10T19:08:42.954Z,8.40
2023-05-10T19:11:09.481Z,10.05
2023-05-10T19:13:36.080Z,9.57
2023-05-10T19:16:05.782Z,10.25
2023-05-10T19:18:32.738Z,10.98
2023-05-10T19:21:02.349Z,11.18
2023-05-10T19:23:30.222Z,11.25
2023-05-10T19:25:57.014Z,8.32
2023-05-10T19:28:23.495Z,8.43
2023-05-10T19:30:50.330Z,10.45
2023-05-10T19:33:18.410Z,10.85
2023-05-10T19:35:48.635Z,9.30
2023-05-10T19:38:15.165Z,8.48
2023-05-10T19:40:41.839Z,9.52
2023-05-10T19:43:08.608Z,8.90
2023-05-10T19:45:37.134Z,8.80
2023-05-10T19:48:03.843Z,9.85
2023-05-10T19:50:30.505Z,10.13
2023-05-10T19:52:58.439Z,10.70
2023-05-10T19:55:30.889Z,12.10
2023-05-10T19:57:57.929Z,9.00
2023-05-10T20:00:24.941Z,10.07
2023-05-10T20:02:51.716Z,11.48
2023-05-10T20:05:18.456Z,9.88
2023-05-10T20:07:45.457Z,9.90
2023-05-10T20:10:12.174Z,8.18
2023-05-10T20:12:38.688Z,10.02
2023-05-10T20:15:07.497Z,9.60
2023-05-10T20:17:35.842Z,9.30
2023-05-10T20:20:02.330Z,9.02
2023-05-10T20:22:28.829Z,12.13
2023-05-10T20:24:56.284Z,11.05
2023-05-10T20:27:22.888Z,9.43
2023-05-10T20:29:49.363Z,12.60
2023-05-10T20:32:16.054Z,10.80
2023-05-10T20:34:42.515Z,9.23
2023-05-10T20:37:09.140Z,10.48
2023-05-10T20:39:35.821Z,12.93
2023-05-10T20:42:02.390Z,10.73
2023-05-10T20:44:28.888Z,9.32
2023-05-10T20:46:55.437Z,10.73
2023-05-10T20:49:21.880Z,11.98
2023-05-10T20:51:48.345Z,14.02
2023-05-10T20:54:14.802Z,13.20
2023-05-10T20:56:41.314Z,12.65
2023-05-10T20:59:07.817Z,12.15
2023-05-10T21:01:34.317Z,12.73
2023-05-10T21:04:00.876Z,14.20
2023-05-10T21:06:27.316Z,13.45
2023-05-10T21:08:53.838Z,12.57
2023-05-10T21:11:20.786Z,13.82
2023-05-10T21:13:47.298Z,12.35
2023-05-10T21:16:13.834Z,13.05
2023-05-10T21:18:40.350Z,9.75
2023-05-10T21:21:06.896Z,12.38
2023-05-10T21:23:34.668Z,12.15
2023-05-10T21:26:03.723Z,13.45
2023-05-10T21:30:56.954Z,11.40
2023-05-10T21:33:23.812Z,10.45
2023-05-10T21:35:50.563Z,11.23
2023-05-10T21:38:17.198Z,13.68
2023-05-10T21:40:43.740Z,14.82
2023-05-10T21:43:11.310Z,15.00
2023-05-10T21:45:38.102Z,10.05
2023-05-10T21:48:04.946Z,11.07
2023-05-10T21:50:31.420Z,12.20
2023-05-10T21:52:58.112Z,11.85
2023-05-10T21:55:24.722Z,14.23
2023-05-10T21:57:51.248Z,12.05
2023-05-10T22:00:19.238Z,11.02
2023-05-10T22:02:46.795Z,12.15
2023-05-10T22:05:13.589Z,9.25
2023-05-10T22:07:40.082Z,11.95
2023-05-10T22:10:08.509Z,10.30
2023-05-10T22:12:35.217Z,11.95
2023-05-10T22:15:10.226Z,12.45
2023-05-10T22:17:40.745Z,11.10
2023-05-10T22:20:08.886Z,11.40
2023-05-10T22:22:36.517Z,11.10
2023-05-10T22:25:03.054Z,12.65
2023-05-10T22:27:29.519Z,12.65
2023-05-10T22:29:56.537Z,11.57
2023-05-10T22:32:23.066Z,12.85
2023-05-10T22:34:49.587Z,13.02
2023-05-10T22:37:17.953Z,10.82
2023-05-10T22:39:48.625Z,11.93
2023-05-10T22:42:15.729Z,12.82
2023-05-10T22:44:42.718Z,11.48
2023-05-10T22:47:09.399Z,10.73
2023-05-10T22:49:36.154Z,13.43
2023-05-10T22:52:02.601Z,12.20
2023-05-10T22:54:29.164Z,14.25
2023-05-10T22:56:56.508Z,11.63
2023-05-10T22:59:23.523Z,11.68
2023-05-10T23:01:50.289Z,14.40
2023-05-10T23:04:16.951Z,15.13
2023-05-10T23:06:43.540Z,14.80
2023-05-10T23:09:10.083Z,12.60
2023-05-10T23:11:36.573Z,13.80
2023-05-10T23:14:03.282Z,13.40
2023-05-10T23:16:30.512Z,13.45
2023-05-10T23:18:57.312Z,14.27
2023-05-10T23:21:26.595Z,14.93
2023-05-10T23:23:53.080Z,11.40
2023-05-10T23:26:19.563Z,15.45
2023-05-10T23:28:46.052Z,16.90
2023-05-10T23:31:12.663Z,12.75
2023-05-10T23:33:39.146Z,13.60
2023-05-10T23:36:05.771Z,15.07
2023-05-10T23:38:32.239Z,14.35
2023-05-10T23:40:58.772Z,15.10
2023-05-10T23:43:25.453Z,17.70
2023-05-10T23:45:54.145Z,13.55
2023-05-10T23:48:21.074Z,14.73
2023-05-10T23:50:47.866Z,14.27
2023-05-10T23:53:14.458Z,17.45
2023-05-10T23:55:40.940Z,15.93
2023-05-10T23:58:07.421Z,14.05
